Time;durP1;ratioP1;P1;durP2;ratioP2;P2;SDS_P1;SDS_P2;PMS_P1;PMS_P2;Temp;Humidity;BMP_temperature;BMP_pressure;BME280_temperature;BME280_humidity;BME280_pressure;Samples;Min_cycle;Max_cycle;Signal;HPM_P1;HPM_P2
2023/12/31 00:00:12;;;;;;;5.33;2.37;;;21.60;80.40;;;;;;4999248;28;20458;-50
2023/12/31 00:02:41;;;;;;;2.93;2.30;;;21.60;80.40;;;;;;5004395;28;20484;-56
2023/12/31 00:05:08;;;;;;;3.33;1.67;;;21.60;80.30;;;;;;5004506;28;20466;-52
2023/12/31 00:07:37;;;;;;;2.43;2.13;;;21.60;80.40;;;;;;5006181;28;20803;-51
2023/12/31 00:10:05;;;;;;;2.30;2.03;;;21.60;80.50;;;;;;5004145;28;20454;-55
2023/12/31 00:12:32;;;;;;;4.03;2.70;;;21.60;80.50;;;;;;4997937;28;20565;-52
2023/12/31 00:14:59;;;;;;;3.47;2.37;;;21.60;80.50;;;;;;5000180;28;20465;-52
2023/12/31 00:17:27;;;;;;;3.23;2.13;;;21.60;80.60;;;;;;5000083;28;21022;-51
2023/12/31 00:20:00;;;;;;;2.70;2.10;;;21.50;80.50;;;;;;5002123;28;20483;-50
2023/12/31 00:22:27;;;;;;;2.70;1.70;;;21.50;80.50;;;;;;5004511;28;20481;-53
2023/12/31 00:24:55;;;;;;;3.60;2.00;;;21.50;80.50;;;;;;5003480;28;20462;-53
2023/12/31 00:27:22;;;;;;;3.50;2.10;;;21.50;80.50;;;;;;5002902;28;20467;-50
2023/12/31 00:29:49;;;;;;;3.50;2.50;;;21.50;80.50;;;;;;5001914;28;20879;-54
2023/12/31 00:32:18;;;;;;;3.57;2.27;;;21.50;80.50;;;;;;5009126;28;20461;-52
2023/12/31 00:34:45;;;;;;;4.60;2.23;;;21.50;80.40;;;;;;5008487;28;20454;-52
2023/12/31 00:37:24;;;;;;;2.77;2.10;;;21.50;80.40;;;;;;5008882;28;20810;-55
2023/12/31 00:39:50;;;;;;;4.13;2.00;;;21.40;81.20;;;;;;5006104;28;20544;-55
2023/12/31 00:42:18;;;;;;;2.72;1.70;;;21.40;80.40;;;;;;5003533;28;20461;-54
2023/12/31 00:44:45;;;;;;;3.10;2.10;;;21.40;80.40;;;;;;5002952;28;20637;-51
2023/12/31 00:47:13;;;;;;;2.73;2.00;;;21.40;80.50;;;;;;5006535;28;20473;-54
2023/12/31 00:49:40;;;;;;;3.90;1.87;;;21.40;80.60;;;;;;5009606;28;21099;-54
2023/12/31 00:52:09;;;;;;;3.00;1.90;;;21.30;80.40;;;;;;5005167;28;20470;-53
2023/12/31 00:54:42;;;;;;;3.60;2.00;;;21.40;80.60;;;;;;5011359;28;20512;-53
2023/12/31 00:57:12;;;;;;;2.87;2.00;;;21.30;80.40;;;;;;4992851;28;20660;-55
2023/12/31 00:59:42;;;;;;;3.00;2.00;;;21.30;80.40;;;;;;5003578;28;20457;-51
2023/12/31 01:02:13;;;;;;;3.27;2.13;;;21.30;80.40;;;;;;5008339;28;20498;-53
2023/12/31 01:04:39;;;;;;;2.30;1.97;;;21.30;80.40;;;;;;5008800;28;20449;-52
2023/12/31 01:07:10;;;;;;;2.95;2.10;;;21.30;80.40;;;;;;5004257;28;20753;-55
2023/12/31 01:09:36;;;;;;;2.00;1.80;;;21.30;80.40;;;;;;5007999;28;20200;-52
2023/12/31 01:12:05;;;;;;;2.20;1.67;;;21.30;80.60;;;;;;5003161;28;20462;-53
2023/12/31 01:14:32;;;;;;;2.00;1.60;;;21.30;80.60;;;;;;4998920;28;20716;-56
2023/12/31 01:17:01;;;;;;;4.80;2.53;;;21.30;80.60;;;;;;5004144;28;20992;-51
2023/12/31 01:19:28;;;;;;;3.30;1.92;;;21.30;80.70;;;;;;5007876;28;20697;-53
2023/12/31 01:21:55;;;;;;;2.33;1.50;;;21.20;80.60;;;;;;5004421;28;20550;-53
2023/12/31 01:24:21;;;;;;;3.10;2.03;;;21.20;80.60;;;;;;5002932;28;20776;-54
2023/12/31 01:26:54;;;;;;;1.70;1.60;;;21.20;80.60;;;;;;5005599;28;20459;-53
2023/12/31 01:29:20;;;;;;;2.00;1.73;;;21.20;80.60;;;;;;5004064;28;20210;-54
2023/12/31 01:31:47;;;;;;;3.20;1.50;;;21.20;80.60;;;;;;5007067;28;20461;-53
2023/12/31 01:34:16;;;;;;;2.55;1.38;;;21.20;80.50;;;;;;5006001;28;20683;-52
2023/12/31 01:36:42;;;;;;;1.97;1.53;;;21.20;80.50;;;;;;5006363;28;21281;-51
2023/12/31 01:39:09;;;;;;;2.47;1.80;;;21.20;80.60;;;;;;5004266;28;20458;-57
2023/12/31 01:41:38;;;;;;;2.65;1.90;;;21.20;80.50;;;;;;5006366;28;20263;-52
2023/12/31 01:44:08;;;;;;;5.30;2.25;;;21.20;80.50;;;;;;5003306;28;20216;-54
2023/12/31 01:46:36;;;;;;;2.55;1.98;;;21.10;80.40;;;;;;4998589;28;20633;-51
2023/12/31 01:49:03;;;;;;;2.00;1.75;;;21.10;81.30;;;;;;5005290;28;20200;-52
2023/12/31 01:51:32;;;;;;;2.40;2.20;;;21.10;80.60;;;;;;5004621;28;20211;-56
2023/12/31 01:54:02;;;;;;;2.13;1.83;;;21.10;80.70;;;;;;4998777;28;20467;-53
2023/12/31 01:56:30;;;;;;;2.72;1.90;;;21.10;80.70;;;;;;5000752;28;20458;-52
2023/12/31 01:58:59;;;;;;;4.63;1.83;;;21.10;80.60;;;;;;5006875;28;20203;-51
2023/12/31 02:01:27;;;;;;;3.30;1.80;;;21.10;80.60;;;;;;5007659;28;20790;-52
2023/12/31 02:03:54;;;;;;;3.10;1.67;;;21.10;80.60;;;;;;5003827;28;20483;-53
2023/12/31 02:06:23;;;;;;;2.55;1.58;;;21.00;80.50;;;;;;5003536;28;20199;-54
2023/12/31 02:08:51;;;;;;;3.22;1.95;;;21.00;80.50;;;;;;5000716;28;20196;-51
2023/12/31 02:11:18;;;;;;;2.45;2.00;;;21.00;80.40;;;;;;5006793;28;20809;-52
2023/12/31 02:13:45;;;;;;;2.65;2.10;;;21.00;80.40;;;;;;5004417;28;20201;-54
2023/12/31 02:16:15;;;;;;;1.80;1.43;;;21.00;80.40;;;;;;5000666;28;20208;-52
2023/12/31 02:18:42;;;;;;;2.50;1.47;;;21.00;80.40;;;;;;5005954;28;20609;-51
2023/12/31 02:21:13;;;;;;;2.00;1.47;;;21.00;80.50;;;;;;5009732;28;20458;-52
2023/12/31 02:23:43;;;;;;;3.97;2.67;;;21.00;80.60;;;;;;5004794;28;20474;-56
2023/12/31 02:26:12;;;;;;;3.70;1.90;;;21.00;80.60;;;;;;5006559;28;20188;-56
2023/12/31 02:28:40;;;;;;;2.90;1.57;;;20.90;80.70;;;;;;5007479;28;21821;-54
2023/12/31 02:31:18;;;;;;;2.83;1.58;;;20.90;80.60;;;;;;5002781;28;20465;-50
2023/12/31 02:33:50;;;;;;;2.10;1.75;;;20.90;80.70;;;;;;4998730;28;20203;-53
2023/12/31 02:36:19;;;;;;;2.45;1.98;;;21.00;80.70;;;;;;5004157;28;20346;-53
2023/12/31 02:38:46;;;;;;;3.00;1.93;;;20.90;80.70;;;;;;5007877;28;20199;-51
2023/12/31 02:41:17;;;;;;;2.03;1.75;;;20.90;80.50;;;;;;5008437;28;20458;-49
2023/12/31 02:43:44;;;;;;;2.13;1.80;;;20.90;80.50;;;;;;5002015;28;20223;-52
2023/12/31 02:46:11;;;;;;;1.90;1.40;;;20.90;80.60;;;;;;5008699;28;20203;-53
2023/12/31 02:48:37;;;;;;;1.55;1.45;;;20.90;80.40;;;;;;5007274;28;20202;-54
2023/12/31 02:51:05;;;;;;;2.67;1.80;;;20.90;80.40;;;;;;5005991;28;20726;-50
2023/12/31 02:53:33;;;;;;;2.35;1.90;;;20.90;80.60;;;;;;4996876;28;20664;-53
2023/12/31 02:56:03;;;;;;;1.80;1.45;;;20.90;80.50;;;;;;5002454;28;20198;-52
2023/12/31 02:58:31;;;;;;;1.60;1.20;;;20.90;80.60;;;;;;5000186;28;20203;-50
2023/12/31 03:01:03;;;;;;;1.63;1.30;;;20.90;80.70;;;;;;5008398;28;20202;-49
2023/12/31 03:03:31;;;;;;;3.30;1.95;;;20.90;80.80;;;;;;5004688;28;20227;-49
2023/12/31 03:06:03;;;;;;;1.98;1.65;;;20.90;80.90;;;;;;5008462;28;20200;-53
2023/12/31 03:08:30;;;;;;;1.77;1.38;;;20.80;80.60;;;;;;5002424;28;20485;-54
2023/12/31 03:10:56;;;;;;;2.00;1.75;;;20.80;80.60;;;;;;5006045;28;20199;-54
2023/12/31 03:13:27;;;;;;;2.20;1.77;;;20.80;81.40;;;;;;4996762;28;20697;-53
2023/12/31 03:15:55;;;;;;;2.10;1.63;;;20.80;80.60;;;;;;5000323;28;20199;-55
2023/12/31 03:18:22;;;;;;;1.80;1.33;;;20.80;80.50;;;;;;5010980;28;20195;-54
2023/12/31 03:20:49;;;;;;;2.00;1.55;;;20.80;80.60;;;;;;5008253;28;20414;-53
2023/12/31 03:23:16;;;;;;;1.80;1.38;;;20.80;80.60;;;;;;5002599;28;20278;-55
2023/12/31 03:25:44;;;;;;;1.88;1.30;;;20.80;80.60;;;;;;5008478;28;20210;-52
2023/12/31 03:28:12;;;;;;;3.20;1.92;;;20.80;80.70;;;;;;5002597;28;20349;-55
2023/12/31 03:30:39;;;;;;;1.70;1.25;;;20.80;80.50;;;;;;5005359;28;20199;-55
2023/12/31 03:33:08;;;;;;;1.70;1.50;;;20.80;80.70;;;;;;5008169;28;20199;-51
2023/12/31 03:35:38;;;;;;;3.27;1.50;;;20.70;80.50;;;;;;5005373;28;20200;-53
2023/12/31 03:38:05;;;;;;;2.10;1.50;;;20.80;80.50;;;;;;5009141;28;21249;-55
2023/12/31 03:40:35;;;;;;;1.65;1.20;;;20.70;80.70;;;;;;5007348;28;20209;-55
2023/12/31 03:43:02;;;;;;;1.80;1.30;;;20.70;80.70;;;;;;5005223;28;20478;-52
2023/12/31 03:45:28;;;;;;;2.37;1.57;;;20.70;80.90;;;;;;5004274;28;20212;-54
2023/12/31 03:47:55;;;;;;;2.70;2.20;;;20.70;80.90;;;;;;5008092;28;20957;-52
2023/12/31 03:50:25;;;;;;;1.45;1.20;;;20.70;80.80;;;;;;5006072;28;20214;-55
2023/12/31 03:52:52;;;;;;;2.22;2.03;;;20.70;80.70;;;;;;5004824;28;20208;-52
2023/12/31 03:55:20;;;;;;;1.70;1.40;;;20.70;80.70;;;;;;4998473;28;20394;-52
2023/12/31 03:57:48;;;;;;;3.08;1.65;;;20.70;80.60;;;;;;5005422;28;22388;-50
2023/12/31 04:00:16;;;;;;;2.15;1.52;;;20.70;80.50;;;;;;5004629;28;20199;-51
2023/12/31 04:02:43;;;;;;;1.70;1.42;;;20.70;80.70;;;;;;5008557;28;20196;-54
2023/12/31 04:05:10;;;;;;;1.98;1.70;;;20.70;80.80;;;;;;5005320;28;20306;-53
2023/12/31 04:07:41;;;;;;;1.60;1.50;;;20.70;80.70;;;;;;5007716;28;20802;-55
2023/12/31 04:10:12;;;;;;;1.35;1.17;;;20.60;80.60;;;;;;5012961;28;20408;-55
2023/12/31 04:12:39;;;;;;;1.75;1.35;;;20.60;80.80;;;;;;5013198;28;20199;-52
2023/12/31 04:15:08;;;;;;;2.05;1.58;;;20.60;80.80;;;;;;5004106;28;20292;-52
2023/12/31 04:17:34;;;;;;;2.38;1.70;;;20.60;80.80;;;;;;5008827;28;20694;-53
2023/12/31 04:20:03;;;;;;;1.73;1.40;;;20.60;80.80;;;;;;5006824;28;20211;-55
2023/12/31 04:22:34;;;;;;;1.90;1.73;;;20.60;80.80;;;;;;5008131;28;20772;-54
2023/12/31 04:25:08;;;;;;;1.42;1.17;;;20.60;80.80;;;;;;5009115;28;22631;-52
2023/12/31 04:27:38;;;;;;;1.80;1.42;;;20.60;80.80;;;;;;5005295;28;20796;-53
2023/12/31 04:30:06;;;;;;;1.95;1.42;;;20.60;80.60;;;;;;5006773;28;20337;-53
2023/12/31 04:32:35;;;;;;;2.03;1.48;;;20.60;80.70;;;;;;5010092;28;20322;-51
2023/12/31 04:35:03;;;;;;;1.90;1.50;;;20.60;80.70;;;;;;5006423;28;20200;-53
2023/12/31 04:37:30;;;;;;;1.98;1.33;;;20.60;80.50;;;;;;5011797;28;20199;-50
2023/12/31 04:39:57;;;;;;;1.80;1.50;;;20.60;80.60;;;;;;5004829;28;20203;-51
2023/12/31 04:42:26;;;;;;;3.15;1.75;;;20.60;80.60;;;;;;5011036;28;20391;-55
2023/12/31 04:44:54;;;;;;;2.08;1.25;;;20.60;80.70;;;;;;5007822;28;20243;-55
2023/12/31 04:47:23;;;;;;;1.90;1.35;;;20.60;80.60;;;;;;5010499;28;20199;-54
2023/12/31 04:49:52;;;;;;;1.63;1.33;;;20.60;81.50;;;;;;5006930;28;20235;-52
2023/12/31 04:52:21;;;;;;;1.80;1.50;;;20.50;80.70;;;;;;5006756;28;20203;-50
2023/12/31 04:54:51;;;;;;;1.65;1.10;;;20.50;81.00;;;;;;5005641;28;20210;-52
2023/12/31 04:57:18;;;;;;;1.60;1.25;;;20.50;80.80;;;;;;5008585;28;20224;-53
2023/12/31 04:59:46;;;;;;;1.63;1.50;;;20.50;80.70;;;;;;5001598;28;21655;-54
2023/12/31 05:02:12;;;;;;;1.40;1.20;;;20.50;80.70;;;;;;5002466;28;20196;-54
2023/12/31 05:04:47;;;;;;;2.95;1.67;;;20.60;80.60;;;;;;5007255;28;20219;-54
2023/12/31 05:07:14;;;;;;;1.20;1.10;;;20.50;80.60;;;;;;5007582;28;20221;-54
2023/12/31 05:09:42;;;;;;;3.20;2.03;;;20.50;80.40;;;;;;5001427;28;20785;-52
2023/12/31 05:12:09;;;;;;;1.50;1.10;;;20.50;80.60;;;;;;5013234;28;21172;-54
2023/12/31 05:14:38;;;;;;;1.42;1.30;;;20.50;80.60;;;;;;5006243;28;20203;-50
2023/12/31 05:17:06;;;;;;;1.60;1.23;;;20.50;80.40;;;;;;5008350;28;20203;-53
2023/12/31 05:19:40;;;;;;;2.58;1.40;;;20.50;80.30;;;;;;5004758;28;20493;-52
2023/12/31 05:22:07;;;;;;;2.70;1.48;;;20.50;80.50;;;;;;5003642;28;20203;-53
2023/12/31 05:24:34;;;;;;;2.35;1.70;;;20.50;80.60;;;;;;5005145;28;20219;-49
2023/12/31 05:27:04;;;;;;;4.65;1.67;;;20.50;80.70;;;;;;5008200;28;20199;-52
2023/12/31 05:29:30;;;;;;;1.90;1.10;;;20.50;80.80;;;;;;4999764;28;20748;-51
2023/12/31 05:31:57;;;;;;;1.80;1.30;;;20.40;80.70;;;;;;5006256;28;20470;-53
2023/12/31 05:34:27;;;;;;;1.60;1.30;;;20.50;80.60;;;;;;5007523;28;20203;-52
2023/12/31 05:36:53;;;;;;;1.83;1.20;;;20.50;80.60;;;;;;5000708;28;20198;-55
2023/12/31 05:39:20;;;;;;;2.78;1.52;;;20.40;80.50;;;;;;5006146;28;20484;-52
2023/12/31 05:41:54;;;;;;;1.98;1.15;;;20.50;80.60;;;;;;5007246;28;20199;-54
2023/12/31 05:44:23;;;;;;;1.80;1.45;;;20.50;80.60;;;;;;5000686;28;20251;-54
2023/12/31 05:46:50;;;;;;;1.48;1.08;;;20.40;80.40;;;;;;5003171;28;20764;-56
2023/12/31 05:49:17;;;;;;;1.30;1.20;;;20.40;80.40;;;;;;5005857;28;20206;-53
2023/12/31 05:51:45;;;;;;;1.35;1.02;;;20.40;80.50;;;;;;5002975;28;20693;-52
2023/12/31 05:54:11;;;;;;;1.92;1.50;;;20.40;80.40;;;;;;5007491;28;20200;-53
2023/12/31 05:56:50;;;;;;;1.65;1.40;;;20.40;80.60;;;;;;5009728;28;20251;-54
2023/12/31 05:59:19;;;;;;;1.23;1.08;;;20.40;80.70;;;;;;5005796;28;20640;-52
2023/12/31 06:01:46;;;;;;;1.83;1.20;;;20.40;80.70;;;;;;5001908;28;20654;-54
2023/12/31 06:04:18;;;;;;;1.42;1.10;;;20.40;80.80;;;;;;5004284;28;20253;-52
2023/12/31 06:06:46;;;;;;;1.67;1.20;;;20.40;80.60;;;;;;5007577;28;20644;-54
2023/12/31 06:09:13;;;;;;;1.73;1.30;;;20.40;80.80;;;;;;5009286;28;20193;-54
2023/12/31 06:11:40;;;;;;;3.13;1.58;;;20.40;80.70;;;;;;5003310;28;20195;-51
2023/12/31 06:14:09;;;;;;;1.23;1.00;;;20.40;80.70;;;;;;5003807;28;20208;-54
2023/12/31 06:16:39;;;;;;;2.28;1.42;;;20.40;80.50;;;;;;5002172;28;20200;-55
2023/12/31 06:19:08;;;;;;;1.48;1.30;;;20.40;80.60;;;;;;5007719;28;20191;-54
2023/12/31 06:21:34;;;;;;;1.80;1.35;;;20.40;80.40;;;;;;5002516;28;26225;-54
2023/12/31 06:24:02;;;;;;;2.10;1.40;;;20.40;80.50;;;;;;5005586;28;20196;-52
2023/12/31 06:26:32;;;;;;;1.30;1.10;;;20.40;80.70;;;;;;5005377;28;20794;-50
2023/12/31 06:29:04;;;;;;;1.48;1.38;;;20.30;80.40;;;;;;5010583;28;20214;-52
2023/12/31 06:31:31;;;;;;;1.98;1.30;;;20.30;80.50;;;;;;5001914;28;20198;-56
2023/12/31 06:33:57;;;;;;;1.30;1.00;;;20.40;80.70;;;;;;5008727;28;20229;-52
2023/12/31 06:36:27;;;;;;;1.95;1.20;;;20.30;80.70;;;;;;5004962;28;20235;-54
2023/12/31 06:38:55;;;;;;;1.95;1.20;;;20.30;80.60;;;;;;5003096;28;20881;-53
2023/12/31 06:41:23;;;;;;;1.60;1.20;;;20.40;80.80;;;;;;5006176;28;20195;-49
2023/12/31 06:43:50;;;;;;;1.63;1.50;;;20.40;80.60;;;;;;5005430;28;20199;-53
2023/12/31 06:46:17;;;;;;;1.70;1.50;;;20.30;80.70;;;;;;5002381;28;20231;-55
2023/12/31 06:48:43;;;;;;;1.45;1.20;;;20.40;80.70;;;;;;5004145;28;20206;-54
2023/12/31 06:51:14;;;;;;;2.35;1.35;;;20.30;80.60;;;;;;5006659;28;20661;-54
2023/12/31 06:53:48;;;;;;;1.63;1.00;;;20.30;80.60;;;;;;5004991;28;20205;-53
2023/12/31 06:56:17;;;;;;;1.40;1.08;;;20.30;80.70;;;;;;5007456;28;20227;-55
2023/12/31 06:58:45;;;;;;;1.25;1.13;;;20.30;80.70;;;;;;5003166;28;20195;-56
2023/12/31 07:01:13;;;;;;;1.27;1.00;;;20.30;80.70;;;;;;4999394;28;20199;-53
2023/12/31 07:03:40;;;;;;;1.92;1.38;;;20.30;80.70;;;;;;5002847;28;20230;-54
2023/12/31 07:06:08;;;;;;;1.20;0.93;;;20.30;80.60;;;;;;5002509;28;20218;-54
2023/12/31 07:08:35;;;;;;;5.25;1.25;;;20.30;80.90;;;;;;5010172;28;20192;-52
2023/12/31 07:11:04;;;;;;;2.00;1.10;;;20.30;80.90;;;;;;5006088;28;20764;-54
2023/12/31 07:13:31;;;;;;;1.40;1.17;;;20.30;80.70;;;;;;4999045;28;20191;-55
2023/12/31 07:16:02;;;;;;;3.35;1.75;;;20.30;80.70;;;;;;5003779;28;20588;-53
2023/12/31 07:18:30;;;;;;;2.75;1.40;;;20.30;80.70;;;;;;5004833;28;20203;-55
2023/12/31 07:21:00;;;;;;;1.58;1.17;;;20.30;80.50;;;;;;5000592;28;20203;-52
2023/12/31 07:23:29;;;;;;;4.70;1.30;;;20.30;80.10;;;;;;5001518;28;20245;-54
2023/12/31 07:25:55;;;;;;;1.52;1.10;;;20.20;80.10;;;;;;5002959;28;20485;-54
2023/12/31 07:28:22;;;;;;;1.60;1.15;;;20.20;80.20;;;;;;4998988;28;20647;-55
2023/12/31 07:30:49;;;;;;;1.50;1.10;;;20.20;80.20;;;;;;5007087;28;20200;-52
2023/12/31 07:33:21;;;;;;;1.73;1.05;;;20.20;80.00;;;;;;5005530;28;20215;-54
2023/12/31 07:35:48;;;;;;;1.30;1.13;;;20.20;80.10;;;;;;5005767;28;20241;-52
2023/12/31 07:38:16;;;;;;;1.97;1.10;;;20.20;80.10;;;;;;5005177;28;20203;-51
2023/12/31 07:40:43;;;;;;;1.98;1.40;;;20.30;80.30;;;;;;5004882;28;20468;-52
2023/12/31 07:43:16;;;;;;;1.40;1.10;;;20.30;80.30;;;;;;5005881;28;20655;-54
2023/12/31 07:45:45;;;;;;;1.40;1.03;;;20.30;80.30;;;;;;5003347;28;20228;-54
2023/12/31 07:48:12;;;;;;;1.20;1.00;;;20.30;80.40;;;;;;5003411;28;20469;-54
2023/12/31 07:50:40;;;;;;;3.88;1.17;;;20.30;80.30;;;;;;4994706;28;20195;-49
2023/12/31 07:53:09;;;;;;;1.20;1.00;;;20.30;80.40;;;;;;5006625;28;20204;-56
2023/12/31 07:55:35;;;;;;;1.40;1.20;;;20.30;80.50;;;;;;5002620;28;20290;-51
2023/12/31 07:58:04;;;;;;;1.65;1.20;;;20.30;80.40;;;;;;5006287;28;20242;-53
2023/12/31 08:00:31;;;;;;;1.88;1.10;;;20.40;80.50;;;;;;5001974;28;20226;-50
2023/12/31 08:02:57;;;;;;;2.13;1.23;;;20.40;80.60;;;;;;5008376;28;20200;-55
2023/12/31 08:05:30;;;;;;;1.83;1.00;;;20.40;80.70;;;;;;5006503;28;20488;-49
2023/12/31 08:08:00;;;;;;;2.20;1.10;;;20.40;81.60;;;;;;4999507;28;20210;-53
2023/12/31 08:10:27;;;;;;;1.40;1.17;;;20.40;81.10;;;;;;5004220;28;20202;-56
2023/12/31 08:12:53;;;;;;;1.20;1.10;;;20.40;81.20;;;;;;5009764;28;20475;-52
2023/12/31 08:15:20;;;;;;;3.15;2.70;;;20.40;81.20;;;;;;5002941;28;21402;-50
2023/12/31 08:17:47;;;;;;;1.80;1.25;;;20.40;81.30;;;;;;5006262;28;20199;-53
2023/12/31 08:20:14;;;;;;;1.45;1.08;;;20.40;81.30;;;;;;5000355;28;20676;-51
2023/12/31 08:22:43;;;;;;;2.17;1.40;;;20.40;81.30;;;;;;5003417;28;21026;-54
2023/12/31 08:25:11;;;;;;;1.75;1.40;;;20.50;81.40;;;;;;5005088;28;20216;-54
2023/12/31 08:27:38;;;;;;;2.95;1.77;;;20.50;81.50;;;;;;5003403;28;20203;-55
2023/12/31 08:30:14;;;;;;;1.40;1.20;;;20.50;81.50;;;;;;5002071;28;20666;-55
2023/12/31 08:32:43;;;;;;;1.88;1.00;;;20.50;81.50;;;;;;5005345;28;20557;-53
2023/12/31 08:35:10;;;;;;;1.50;1.00;;;20.50;81.50;;;;;;5007134;28;21460;-54
2023/12/31 08:37:37;;;;;;;1.67;1.20;;;20.50;81.50;;;;;;5002907;28;21135;-54
2023/12/31 08:40:05;;;;;;;1.60;1.40;;;20.50;81.70;;;;;;5007237;28;20206;-52
2023/12/31 08:42:33;;;;;;;1.40;1.20;;;20.50;81.60;;;;;;5008195;28;20206;-54
2023/12/31 08:45:03;;;;;;;1.70;1.10;;;20.50;81.50;;;;;;5003820;28;20900;-51
2023/12/31 08:47:30;;;;;;;2.03;1.40;;;20.40;81.40;;;;;;4999393;28;20972;-56
2023/12/31 08:49:56;;;;;;;4.20;1.13;;;20.50;81.70;;;;;;5001522;28;20200;-50
2023/12/31 08:52:29;;;;;;;1.40;1.17;;;20.50;82.00;;;;;;5003881;28;20221;-53
2023/12/31 08:55:01;;;;;;;1.77;1.30;;;20.50;81.80;;;;;;5004848;28;20193;-55
2023/12/31 08:57:39;;;;;;;1.17;0.90;;;20.50;81.80;;;;;;5006814;28;20642;-53
2023/12/31 09:00:09;;;;;;;1.63;1.33;;;20.60;82.20;;;;;;5004911;28;20191;-56
2023/12/31 09:02:36;;;;;;;2.65;1.25;;;20.60;82.10;;;;;;5004187;28;20465;-53
2023/12/31 09:05:04;;;;;;;2.88;1.20;;;20.60;82.00;;;;;;5005358;28;20202;-55
2023/12/31 09:07:45;;;;;;;1.17;1.08;;;20.60;81.90;;;;;;5006181;28;20289;-54
2023/12/31 09:10:12;;;;;;;1.42;1.23;;;20.60;81.90;;;;;;5008760;28;20199;-51
2023/12/31 09:12:44;;;;;;;1.60;1.20;;;20.60;81.80;;;;;;5008789;28;20381;-55
2023/12/31 09:15:11;;;;;;;1.85;1.20;;;20.60;81.70;;;;;;5001801;28;20200;-55
2023/12/31 09:17:42;;;;;;;2.00;1.10;;;20.70;81.80;;;;;;5005524;28;20616;-53
2023/12/31 09:20:11;;;;;;;1.75;1.00;;;20.70;81.70;;;;;;5009077;28;20199;-49
2023/12/31 09:22:41;;;;;;;1.45;1.10;;;20.70;81.70;;;;;;5003582;28;20282;-50
2023/12/31 09:25:08;;;;;;;2.00;1.58;;;20.70;81.70;;;;;;5010385;28;21034;-51
2023/12/31 09:27:39;;;;;;;2.78;1.30;;;20.70;81.60;;;;;;5006518;28;20196;-51
2023/12/31 09:30:07;;;;;;;1.20;1.10;;;20.70;81.60;;;;;;5007960;28;20203;-51
2023/12/31 09:32:35;;;;;;;1.27;1.17;;;20.70;82.40;;;;;;5009803;28;20206;-49
2023/12/31 09:35:02;;;;;;;2.00;1.35;;;20.70;81.70;;;;;;5011212;28;20207;-49
2023/12/31 09:37:29;;;;;;;1.55;1.10;;;20.70;81.60;;;;;;5010692;28;20229;-53
2023/12/31 09:39:56;;;;;;;3.40;1.60;;;20.70;81.70;;;;;;5002212;28;20710;-53
2023/12/31 09:42:33;;;;;;;1.20;1.07;;;20.70;81.70;;;;;;5005065;28;20210;-56
2023/12/31 09:45:04;;;;;;;2.95;1.38;;;20.70;81.70;;;;;;5008259;28;20814;-51
2023/12/31 09:47:39;;;;;;;1.77;1.30;;;20.70;81.70;;;;;;5005290;28;20211;-53
2023/12/31 09:50:08;;;;;;;1.60;0.95;;;20.80;81.70;;;;;;5004443;28;20196;-54
2023/12/31 09:52:35;;;;;;;1.70;1.40;;;20.80;81.80;;;;;;5005223;28;20598;-54
2023/12/31 09:55:06;;;;;;;1.98;1.10;;;20.80;81.70;;;;;;5003714;28;20474;-52
2023/12/31 09:57:35;;;;;;;1.77;1.13;;;20.80;81.60;;;;;;5005903;28;20202;-51
2023/12/31 10:00:07;;;;;;;1.83;1.30;;;20.80;81.50;;;;;;4998547;28;20689;-54
2023/12/31 10:02:33;;;;;;;1.25;0.98;;;20.80;81.50;;;;;;5004142;28;20206;-54
2023/12/31 10:05:04;;;;;;;1.42;1.00;;;20.80;81.40;;;;;;5008890;28;20705;-51
2023/12/31 10:07:30;;;;;;;1.10;1.00;;;20.80;81.30;;;;;;5006485;28;20210;-51
2023/12/31 10:10:01;;;;;;;1.27;1.08;;;20.90;81.40;;;;;;5007346;28;20462;-56
2023/12/31 10:12:31;;;;;;;1.60;1.20;;;20.90;81.30;;;;;;5002589;28;20878;-54
2023/12/31 10:15:02;;;;;;;1.40;1.30;;;20.90;81.20;;;;;;5009233;28;20690;-52
2023/12/31 10:17:29;;;;;;;1.30;1.20;;;20.90;82.00;;;;;;5001170;28;20200;-54
2023/12/31 10:20:01;;;;;;;1.30;1.10;;;20.90;81.10;;;;;;5004034;28;20758;-54
2023/12/31 10:22:30;;;;;;;1.75;1.20;;;20.90;81.10;;;;;;5006978;28;20681;-56
2023/12/31 10:25:13;;;;;;;1.40;1.00;;;20.90;81.00;;;;;;5006800;28;20990;-55
2023/12/31 10:27:40;;;;;;;1.50;1.10;;;21.00;81.20;;;;;;5007733;28;20763;-53
2023/12/31 10:30:12;;;;;;;1.30;1.00;;;21.00;81.00;;;;;;5004145;28;20655;-52
2023/12/31 10:32:39;;;;;;;1.83;1.27;;;21.00;81.10;;;;;;5006160;28;20482;-54
2023/12/31 10:35:07;;;;;;;1.63;1.05;;;21.00;81.00;;;;;;5006384;28;20201;-53
2023/12/31 10:37:34;;;;;;;2.28;1.40;;;21.00;80.90;;;;;;4998898;28;20200;-50
2023/12/31 10:40:20;;;;;;;1.67;1.40;;;21.00;80.90;;;;;;5004303;28;20675;-49
2023/12/31 10:42:50;;;;;;;1.47;1.20;;;21.00;80.90;;;;;;5005660;28;20283;-50
2023/12/31 10:45:22;;;;;;;1.80;1.07;;;21.00;81.60;;;;;;4994195;28;20469;-52
2023/12/31 10:47:51;;;;;;;1.23;0.90;;;21.00;80.70;;;;;;5005736;28;20481;-52
2023/12/31 10:50:26;;;;;;;1.37;1.10;;;21.00;80.80;;;;;;5000574;28;20455;-50
2023/12/31 10:52:56;;;;;;;1.30;0.98;;;21.10;80.90;;;;;;4998185;28;20473;-49
2023/12/31 10:55:24;;;;;;;1.20;0.98;;;21.00;80.70;;;;;;5002588;28;20664;-52
2023/12/31 10:57:52;;;;;;;1.50;0.90;;;21.10;80.80;;;;;;5002319;28;20198;-51
2023/12/31 11:00:23;;;;;;;1.27;1.00;;;21.10;80.80;;;;;;4996862;28;20470;-52
2023/12/31 11:02:53;;;;;;;1.50;1.00;;;21.10;80.60;;;;;;4998820;28;20870;-62
2023/12/31 11:05:23;;;;;;;1.20;0.90;;;21.10;80.70;;;;;;5000316;28;20464;-61
2023/12/31 11:08:04;;;;;;;1.43;1.00;;;21.10;79.60;;;;;;4999681;28;21449;-61
2023/12/31 11:10:31;;;;;;;2.13;1.03;;;21.10;80.60;;;;;;5002660;28;20459;-58
2023/12/31 11:13:05;;;;;;;1.85;1.65;;;21.10;80.50;;;;;;5001303;28;20466;-58
2023/12/31 11:15:34;;;;;;;1.20;1.10;;;21.00;77.20;;;;;;4995965;28;20195;-60
2023/12/31 11:18:20;;;;;;;1.43;1.10;;;21.10;79.50;;;;;;5003757;28;20202;-58
2023/12/31 11:21:13;;;;;;;1.60;1.50;;;21.10;79.50;;;;;;5003303;28;20470;-59
2023/12/31 11:23:47;;;;;;;1.90;1.33;;;21.10;79.50;;;;;;4993191;28;20210;-59
2023/12/31 11:26:16;;;;;;;1.33;1.23;;;21.10;79.60;;;;;;5002913;28;21095;-56
2023/12/31 11:28:49;;;;;;;1.63;1.00;;;21.20;79.70;;;;;;4998735;28;20470;-54
2023/12/31 11:31:21;;;;;;;2.00;1.00;;;21.20;79.70;;;;;;5001681;28;20473;-54
2023/12/31 11:33:50;;;;;;;1.50;1.05;;;21.20;79.70;;;;;;5004685;28;21206;-55
2023/12/31 11:36:18;;;;;;;1.20;1.00;;;21.30;79.70;;;;;;5002200;28;20647;-50
2023/12/31 11:38:59;;;;;;;1.60;1.13;;;21.20;79.70;;;;;;5002570;28;20465;-55
2023/12/31 11:41:27;;;;;;;1.70;1.00;;;21.30;79.70;;;;;;5004412;28;20917;-52
2023/12/31 11:43:56;;;;;;;1.10;0.93;;;21.30;79.70;;;;;;4997299;28;20195;-54
2023/12/31 11:46:38;;;;;;;1.30;1.00;;;21.30;79.70;;;;;;4998257;28;20489;-55
2023/12/31 11:49:06;;;;;;;1.20;1.10;;;21.30;79.60;;;;;;4995080;28;20540;-51
2023/12/31 11:51:50;;;;;;;1.37;1.20;;;21.30;79.60;;;;;;4989610;28;20459;-51
2023/12/31 11:54:20;;;;;;;1.40;1.00;;;21.30;79.50;;;;;;5000323;28;20784;-60
2023/12/31 11:56:48;;;;;;;3.70;1.97;;;21.30;79.50;;;;;;4999512;28;27644;-58
2023/12/31 11:59:18;;;;;;;9.27;1.10;;;21.30;80.10;;;;;;4996332;28;20815;-59
2023/12/31 12:01:48;;;;;;;1.53;1.20;;;21.30;79.70;;;;;;5006405;28;20467;-60
2023/12/31 12:04:16;;;;;;;2.00;1.13;;;21.40;79.90;;;;;;4999751;28;21041;-62
2023/12/31 12:06:43;;;;;;;1.40;1.20;;;21.30;76.50;;;;;;4991834;28;20489;-62
2023/12/31 12:09:11;;;;;;;1.47;1.00;;;21.30;78.10;;;;;;5005200;28;21067;-62
2023/12/31 12:11:43;;;;;;;1.93;1.43;;;21.30;78.60;;;;;;5003380;28;20473;-62
2023/12/31 12:14:12;;;;;;;1.70;1.33;;;21.40;79.10;;;;;;5000814;28;20470;-59
2023/12/31 12:16:39;;;;;;;4.40;1.07;;;21.40;79.30;;;;;;4997902;28;20638;-58
2023/12/31 12:19:10;;;;;;;3.03;1.07;;;21.50;79.70;;;;;;5005358;28;20466;-54
2023/12/31 12:21:41;;;;;;;1.47;1.00;;;21.50;79.90;;;;;;5002896;28;20818;-52
2023/12/31 12:24:10;;;;;;;2.43;1.43;;;21.50;79.90;;;;;;4999162;28;20956;-60
2023/12/31 12:26:40;;;;;;;1.10;0.80;;;21.50;80.00;;;;;;4998312;28;20901;-58
2023/12/31 12:29:11;;;;;;;2.07;0.90;;;21.60;81.00;;;;;;5005258;28;20466;-60
2023/12/31 12:31:41;;;;;;;1.80;1.00;;;21.60;80.30;;;;;;5004572;28;20502;-58
2023/12/31 12:34:09;;;;;;;1.30;1.00;;;21.60;80.40;;;;;;5005136;28;20481;-59
2023/12/31 12:36:38;;;;;;;3.00;1.20;;;21.60;80.50;;;;;;5006891;28;20480;-57
2023/12/31 12:39:05;;;;;;;1.13;0.80;;;21.60;80.50;;;;;;5004401;28;20457;-59
2023/12/31 12:41:34;;;;;;;2.33;1.50;;;21.60;80.60;;;;;;5009683;28;20586;-60
2023/12/31 12:44:09;;;;;;;1.50;1.03;;;21.70;80.80;;;;;;5002065;28;20461;-61
2023/12/31 12:46:40;;;;;;;1.30;1.20;;;21.70;80.90;;;;;;5005134;28;20599;-61
2023/12/31 12:49:10;;;;;;;2.30;1.20;;;21.70;80.70;;;;;;5007250;28;20457;-57
2023/12/31 12:51:37;;;;;;;5.67;1.17;;;21.70;80.90;;;;;;5007796;28;20581;-59
2023/12/31 12:54:08;;;;;;;1.20;0.97;;;21.70;80.80;;;;;;5004414;28;20467;-60
2023/12/31 12:56:37;;;;;;;1.93;1.73;;;21.80;81.00;;;;;;5005103;28;21085;-60